Time;durP1;ratioP1;P1;durP2;ratioP2;P2;SDS_P1;SDS_P2;PMS_P1;PMS_P2;Temp;Humidity;BMP_temperature;BMP_pressure;BME280_temperature;BME280_humidity;BME280_pressure;Samples;Min_cycle;Max_cycle;Signal;HPM_P1;HPM_P2
2024/01/10 00:01:36;;;;;;;87.90;30.98;;;;;;;-0.69;47.72;103195.94;5021327;27;101911;-76
2024/01/10 00:04:03;;;;;;;83.80;30.95;;;;;;;-0.62;47.29;103201.53;5026693;27;96770;-75
2024/01/10 00:06:29;;;;;;;83.22;29.55;;;;;;;-0.91;48.87;103201.78;5024218;27;100049;-75
2024/01/10 00:08:57;;;;;;;81.30;30.90;;;;;;;-1.25;50.02;103194.88;5022511;27;98105;-76
2024/01/10 00:11:24;;;;;;;82.65;30.90;;;;;;;-1.40;50.32;103193.22;5015369;27;101599;-76
2024/01/10 00:13:50;;;;;;;80.18;30.65;;;;;;;-1.37;50.30;103194.25;5022217;27;96717;-75
2024/01/10 00:16:20;;;;;;;96.40;32.50;;;;;;;-1.37;50.22;103188.16;5017477;27;96751;-76
2024/01/10 00:18:46;;;;;;;88.20;30.73;;;;;;;-1.27;50.02;103186.13;5018182;27;101126;-75
2024/01/10 00:21:12;;;;;;;89.53;32.03;;;;;;;-1.35;49.99;103182.25;5021950;27;99270;-76
2024/01/10 00:23:39;;;;;;;84.75;32.00;;;;;;;-1.23;49.66;103182.88;5016339;27;97745;-77
2024/01/10 00:26:07;;;;;;;88.38;31.92;;;;;;;-1.33;49.31;103185.81;5021367;27;96866;-76
2024/01/10 00:28:33;;;;;;;86.60;31.67;;;;;;;-1.43;50.39;103186.16;5022389;27;99141;-76
2024/01/10 00:31:00;;;;;;;89.40;32.53;;;;;;;-1.39;49.89;103189.81;5019709;27;101244;-76
2024/01/10 00:33:26;;;;;;;91.97;33.55;;;;;;;-1.34;49.18;103189.22;5020870;27;97203;-76
2024/01/10 00:35:53;;;;;;;90.68;32.22;;;;;;;-1.44;49.01;103184.34;5019242;27;97659;-75
2024/01/10 00:38:20;;;;;;;94.80;34.15;;;;;;;-1.63;49.29;103179.91;5016316;27;99765;-75
2024/01/10 00:40:46;;;;;;;100.53;33.15;;;;;;;-1.38;48.74;103168.25;5018912;27;101658;-76
2024/01/10 00:43:14;;;;;;;91.53;34.40;;;;;;;-1.27;48.87;103174.88;5021319;27;97423;-76
2024/01/10 00:45:41;;;;;;;91.25;34.38;;;;;;;-1.30;48.14;103169.50;5025391;27;96891;-75
2024/01/10 00:48:12;;;;;;;95.40;33.10;;;;;;;-1.28;49.13;103168.78;5024700;27;99032;-76
2024/01/10 00:50:38;;;;;;;92.15;32.85;;;;;;;-1.57;49.73;103176.75;5026164;27;98876;-75
2024/01/10 00:53:05;;;;;;;92.10;34.33;;;;;;;-1.47;49.86;103171.25;5025548;27;97082;-76
2024/01/10 00:55:31;;;;;;;94.03;34.35;;;;;;;-1.37;49.37;103164.81;5016890;27;97072;-76
2024/01/10 00:57:58;;;;;;;95.53;33.47;;;;;;;-1.42;48.71;103158.50;5020334;27;100795;-76
2024/01/10 01:00:26;;;;;;;92.38;34.33;;;;;;;-1.28;48.09;103158.41;5020386;27;100347;-77
2024/01/10 01:02:53;;;;;;;98.63;34.35;;;;;;;-1.34;48.07;103155.50;5015139;27;96772;-77
2024/01/10 01:05:19;;;;;;;92.78;32.20;;;;;;;-1.30;47.59;103160.03;5017182;27;96935;-74
2024/01/10 01:07:46;;;;;;;96.07;32.35;;;;;;;-1.49;47.67;103161.59;5026585;27;98318;-75
2024/01/10 01:10:12;;;;;;;94.65;34.22;;;;;;;-1.23;46.96;103159.53;5014571;27;99244;-75
2024/01/10 01:12:39;;;;;;;99.03;32.88;;;;;;;-1.40;47.81;103157.78;5024189;27;97254;-73
2024/01/10 01:15:06;;;;;;;97.13;32.85;;;;;;;-1.33;47.38;103164.19;5016018;27;99425;-73
2024/01/10 01:17:35;;;;;;;96.40;31.73;;;;;;;-1.37;46.75;103159.63;5026519;27;99184;-73
2024/01/10 01:20:04;;;;;;;92.43;32.22;;;;;;;-1.37;46.37;103154.44;5025812;27;99126;-73
2024/01/10 01:22:31;;;;;;;83.88;30.38;;;;;;;-1.21;46.43;103155.31;5024848;28;97105;-75
2024/01/10 01:24:57;;;;;;;91.95;32.47;;;;;;;-1.30;46.73;103159.13;5013472;27;98559;-74
2024/01/10 01:27:24;;;;;;;94.45;32.13;;;;;;;-1.28;46.72;103153.22;5022413;27;99575;-75
2024/01/10 01:29:50;;;;;;;81.80;30.17;;;;;;;-1.20;46.73;103156.22;5018493;27;99716;-75
2024/01/10 01:32:17;;;;;;;95.75;33.53;;;;;;;-1.28;47.21;103155.81;5019195;27;97043;-75
2024/01/10 01:34:44;;;;;;;92.05;32.25;;;;;;;-1.32;47.00;103159.09;5020783;27;97682;-75
2024/01/10 01:37:11;;;;;;;95.28;32.65;;;;;;;-1.30;46.57;103152.25;5034071;27;99554;-75
2024/01/10 01:39:37;;;;;;;88.20;33.30;;;;;;;-1.19;46.32;103152.81;5018967;27;99114;-76
2024/01/10 01:42:04;;;;;;;86.35;32.38;;;;;;;-1.25;46.98;103155.97;5026946;27;97072;-76
2024/01/10 01:44:31;;;;;;;87.38;32.53;;;;;;;-1.28;46.60;103153.22;5020545;27;97120;-76
2024/01/10 01:46:58;;;;;;;90.78;33.15;;;;;;;-1.22;46.46;103150.94;5025471;27;99057;-76
2024/01/10 01:49:25;;;;;;;88.65;32.53;;;;;;;-1.30;47.22;103149.66;5022972;27;98775;-76
2024/01/10 01:51:53;;;;;;;89.45;33.25;;;;;;;-1.26;46.70;103145.53;5021518;27;99293;-76
2024/01/10 01:54:20;;;;;;;90.72;33.67;;;;;;;-1.07;47.14;103148.22;5024340;27;97297;-76
2024/01/10 01:56:47;;;;;;;92.07;31.92;;;;;;;-1.06;46.66;103149.13;5025811;27;99436;-75
2024/01/10 01:59:14;;;;;;;92.47;32.53;;;;;;;-1.32;47.40;103151.31;5022287;27;98815;-76
2024/01/10 02:01:41;;;;;;;92.13;32.67;;;;;;;-1.33;47.25;103144.31;5024271;27;96923;-76
2024/01/10 02:04:08;;;;;;;93.18;34.13;;;;;;;-1.52;48.58;103146.78;5022448;27;97279;-76
2024/01/10 02:06:34;;;;;;;90.55;32.50;;;;;;;-1.46;48.74;103147.09;5028245;27;101299;-76
2024/01/10 02:09:03;;;;;;;87.65;32.80;;;;;;;-1.54;48.89;103148.41;5023779;27;99375;-75
2024/01/10 02:11:29;;;;;;;88.38;31.77;;;;;;;-1.29;48.14;103151.44;5017907;27;98238;-74
2024/01/10 02:13:56;;;;;;;87.20;31.85;;;;;;;-1.60;48.61;103140.31;5018707;27;97358;-74
2024/01/10 02:16:24;;;;;;;85.00;31.27;;;;;;;-1.49;48.54;103141.75;5018031;27;99141;-74
2024/01/10 02:18:50;;;;;;;90.82;30.90;;;;;;;-1.41;47.75;103149.94;5023220;27;99121;-74
2024/01/10 02:21:17;;;;;;;84.03;30.30;;;;;;;-1.43;46.74;103147.25;5012995;27;97139;-76
2024/01/10 02:23:43;;;;;;;88.72;31.17;;;;;;;-1.46;46.87;103149.69;5027339;27;96893;-75
2024/01/10 02:26:11;;;;;;;82.70;30.70;;;;;;;-1.23;46.23;103149.16;5021925;27;99187;-75
2024/01/10 02:28:37;;;;;;;82.88;30.58;;;;;;;-1.41;46.28;103144.75;5022624;27;99009;-74
2024/01/10 02:31:04;;;;;;;91.20;30.48;;;;;;;-1.22;45.98;103148.34;5024127;27;97543;-75
2024/01/10 02:33:30;;;;;;;88.78;32.05;;;;;;;-1.14;46.32;103151.34;5024159;27;96824;-74
2024/01/10 02:35:57;;;;;;;88.20;31.17;;;;;;;-1.08;45.80;103142.97;5016623;27;98803;-75
2024/01/10 02:38:23;;;;;;;84.57;29.80;;;;;;;-1.22;46.23;103152.63;5030157;27;98779;-76
2024/01/10 02:40:50;;;;;;;80.25;30.08;;;;;;;-1.11;45.62;103151.47;5022550;27;96713;-77
2024/01/10 02:43:18;;;;;;;86.68;30.15;;;;;;;-1.31;45.91;103140.09;5025671;27;96887;-74
2024/01/10 02:45:44;;;;;;;86.25;31.67;;;;;;;-1.38;45.93;103145.78;5025563;27;99122;-75
2024/01/10 02:48:11;;;;;;;83.68;30.70;;;;;;;-1.31;46.58;103141.78;5022036;27;98869;-75
2024/01/10 02:50:38;;;;;;;83.03;30.65;;;;;;;-1.24;46.79;103134.41;5024859;27;96896;-73
2024/01/10 02:53:05;;;;;;;81.53;30.35;;;;;;;-1.34;46.84;103137.34;5026524;27;96908;-73
2024/01/10 02:55:31;;;;;;;84.25;29.33;;;;;;;-0.82;45.96;103146.03;5026505;27;99037;-74
2024/01/10 02:57:58;;;;;;;82.70;29.38;;;;;;;-1.16;46.00;103131.28;5026776;27;99003;-74
2024/01/10 03:00:25;;;;;;;75.25;28.65;;;;;;;-0.94;46.08;103140.25;5022204;27;96871;-73
2024/01/10 03:02:52;;;;;;;79.47;28.58;;;;;;;-0.98;45.40;103134.81;5031422;27;96770;-73
2024/01/10 03:05:18;;;;;;;82.57;27.83;;;;;;;-1.38;45.86;103129.34;5020477;27;97852;-75
2024/01/10 03:07:45;;;;;;;87.28;30.92;;;;;;;-1.46;47.59;103128.94;5025442;27;98742;-73
2024/01/10 03:10:11;;;;;;;80.93;29.90;;;;;;;-1.52;47.96;103128.66;5025234;27;98482;-74
2024/01/10 03:12:37;;;;;;;84.70;28.58;;;;;;;-1.63;48.50;103122.88;5012255;27;97352;-74
2024/01/10 03:15:06;;;;;;;79.00;28.88;;;;;;;-1.34;48.22;103132.16;5026108;27;99044;-74
2024/01/10 03:17:35;;;;;;;82.80;30.02;;;;;;;-1.53;47.67;103124.25;5021787;27;98882;-74
2024/01/10 03:20:02;;;;;;;76.53;28.73;;;;;;;-1.34;47.07;103115.72;5023293;27;96799;-74
2024/01/10 03:22:30;;;;;;;81.10;29.40;;;;;;;-1.40;46.44;103118.88;5024257;27;98462;-74
2024/01/10 03:24:56;;;;;;;89.88;31.58;;;;;;;-1.16;46.02;103116.63;5018006;27;99395;-74
2024/01/10 03:27:23;;;;;;;85.22;29.45;;;;;;;-1.09;45.48;103118.72;5024758;27;100631;-75
2024/01/10 03:29:49;;;;;;;81.07;29.58;;;;;;;-1.01;45.67;103121.69;5020464;27;97863;-75
2024/01/10 03:32:16;;;;;;;79.43;29.13;;;;;;;-1.20;45.29;103109.50;5013937;27;98674;-74
2024/01/10 03:34:43;;;;;;;78.38;28.23;;;;;;;-1.13;44.83;103115.91;5019860;28;97542;-74
2024/01/10 03:37:10;;;;;;;89.28;30.08;;;;;;;-1.34;44.96;103119.19;5021735;27;97548;-74
2024/01/10 03:39:36;;;;;;;84.25;29.65;;;;;;;-1.26;45.03;103114.41;5027218;27;97540;-74
2024/01/10 03:42:03;;;;;;;78.80;28.90;;;;;;;-0.94;44.60;103116.88;5026965;27;97705;-74
2024/01/10 03:44:29;;;;;;;86.90;31.15;;;;;;;-0.67;44.22;103119.03;5014851;27;99364;-75
2024/01/10 03:46:56;;;;;;;75.43;28.67;;;;;;;-0.73;43.99;103114.44;5025054;27;99036;-74
2024/01/10 03:49:22;;;;;;;88.68;30.38;;;;;;;-0.72;44.06;103116.19;5022437;27;96828;-75
2024/01/10 03:51:50;;;;;;;85.00;30.00;;;;;;;-0.45;43.22;103114.91;5022686;27;97694;-74
2024/01/10 03:54:16;;;;;;;79.18;27.80;;;;;;;-0.40;42.62;103104.75;5023389;27;99339;-74
2024/01/10 03:56:42;;;;;;;81.72;29.35;;;;;;;-0.31;42.69;103109.47;5017995;27;99132;-75
2024/01/10 03:59:09;;;;;;;85.00;29.00;;;;;;;-0.08;42.17;103098.44;5019681;27;97543;-74
2024/01/10 04:01:39;;;;;;;82.40;29.02;;;;;;;-0.25;41.11;103094.16;5018952;27;96931;-74
2024/01/10 04:04:05;;;;;;;75.00;28.90;;;;;;;-0.17;41.32;103095.41;5016783;27;99162;-74
2024/01/10 04:06:31;;;;;;;75.88;28.90;;;;;;;-0.07;41.44;103089.81;5027329;27;99176;-73
2024/01/10 04:08:59;;;;;;;85.28;28.75;;;;;;;-0.18;41.60;103086.72;5025110;27;97020;-75
2024/01/10 04:11:25;;;;;;;79.65;27.92;;;;;;;-0.27;41.74;103091.50;5024874;27;96913;-75
2024/01/10 04:13:52;;;;;;;80.72;30.15;;;;;;;-0.17;41.24;103092.81;5020841;27;102119;-74
2024/01/10 04:16:18;;;;;;;79.35;30.02;;;;;;;-0.31;41.66;103088.69;5022272;27;99098;-75
2024/01/10 04:18:45;;;;;;;78.10;30.30;;;;;;;-0.79;42.62;103088.19;5020402;27;98832;-75
2024/01/10 04:21:11;;;;;;;82.55;29.23;;;;;;;-0.91;43.36;103093.66;5023896;27;97646;-75
2024/01/10 04:23:38;;;;;;;78.53;29.77;;;;;;;-1.15;43.74;103094.16;5027464;27;98933;-74
2024/01/10 04:26:05;;;;;;;80.72;28.60;;;;;;;-1.15;44.08;103092.47;5027736;27;99413;-74
2024/01/10 04:28:32;;;;;;;82.85;29.80;;;;;;;-1.48;44.72;103089.06;5026229;27;98815;-75
2024/01/10 04:30:58;;;;;;;95.68;34.13;;;;;;;-1.41;44.68;103092.88;5019457;27;97661;-75
2024/01/10 04:33:24;;;;;;;82.63;29.25;;;;;;;-1.53;44.56;103082.78;5025290;27;99120;-75
2024/01/10 04:35:51;;;;;;;84.65;30.38;;;;;;;-1.28;44.41;103080.59;5023679;27;98041;-75
2024/01/10 04:38:18;;;;;;;89.85;31.48;;;;;;;-1.37;44.81;103082.72;5018412;27;100047;-75
2024/01/10 04:40:44;;;;;;;87.95;30.98;;;;;;;-1.53;44.75;103093.16;5023947;27;97806;-75
2024/01/10 04:43:12;;;;;;;83.97;30.10;;;;;;;-1.56;45.35;103087.78;5022093;27;99143;-75
2024/01/10 04:45:38;;;;;;;82.63;29.40;;;;;;;-1.39;44.98;103092.16;5016638;27;98975;-75
2024/01/10 04:48:05;;;;;;;95.47;30.83;;;;;;;-1.41;45.05;103093.75;5025156;27;98914;-75
2024/01/10 04:50:32;;;;;;;85.68;30.80;;;;;;;-1.44;45.68;103090.09;5013990;27;96935;-74
2024/01/10 04:52:59;;;;;;;81.40;30.30;;;;;;;-1.64;46.88;103087.41;5022300;27;99285;-75
2024/01/10 04:55:25;;;;;;;80.97;29.73;;;;;;;-1.60;46.80;103085.88;5022289;27;98946;-74
2024/01/10 04:57:50;;;;;;;84.60;30.25;;;;;;;-1.67;46.17;103088.94;5017004;27;97118;-75
2024/01/10 05:00:19;;;;;;;85.25;30.80;;;;;;;-1.30;45.68;103083.91;5019867;27;96837;-75
2024/01/10 05:02:45;;;;;;;89.85;31.92;;;;;;;-1.29;45.46;103086.59;5018054;27;97764;-73
2024/01/10 05:05:12;;;;;;;90.10;31.45;;;;;;;-0.86;44.58;103093.91;5022616;27;98986;-77
2024/01/10 05:07:38;;;;;;;81.65;28.27;;;;;;;-1.03;44.67;103100.84;5019792;27;97290;-77
2024/01/10 05:10:06;;;;;;;79.05;30.70;;;;;;;-1.40;45.89;103098.13;5020429;27;96769;-76
2024/01/10 05:12:32;;;;;;;87.68;31.23;;;;;;;-1.46;47.19;103102.13;5023057;27;98985;-75
2024/01/10 05:14:58;;;;;;;79.85;28.83;;;;;;;-1.38;47.64;103100.81;5009968;27;98899;-73
2024/01/10 05:17:26;;;;;;;92.72;32.08;;;;;;;-1.40;48.05;103092.06;5014286;27;96817;-75
2024/01/10 05:19:53;;;;;;;86.15;31.15;;;;;;;-1.90;50.20;103095.53;5014632;27;96978;-74
2024/01/10 05:22:19;;;;;;;82.55;29.40;;;;;;;-1.75;50.33;103100.63;5015175;27;99013;-75
2024/01/10 05:24:46;;;;;;;94.40;32.60;;;;;;;-1.82;50.48;103108.88;5017972;27;99416;-74
2024/01/10 05:27:13;;;;;;;89.85;30.55;;;;;;;-1.78;49.61;103095.28;5019804;27;97480;-75
2024/01/10 05:29:39;;;;;;;80.68;29.63;;;;;;;-1.56;48.96;103097.25;5018227;27;96771;-75
2024/01/10 05:32:06;;;;;;;89.60;31.58;;;;;;;-1.36;47.98;103101.75;5020043;27;99217;-76
2024/01/10 05:34:34;;;;;;;81.75;30.80;;;;;;;-1.28;47.63;103096.16;5022810;27;100099;-75
2024/01/10 05:37:00;;;;;;;81.85;30.52;;;;;;;-1.16;46.94;103095.88;5014512;27;96915;-75
2024/01/10 05:39:26;;;;;;;86.80;29.80;;;;;;;-1.11;46.02;103096.09;5017551;27;99223;-75
2024/01/10 05:41:53;;;;;;;84.47;29.67;;;;;;;-1.35;45.76;103091.47;5025134;27;99463;-75
2024/01/10 05:44:19;;;;;;;92.82;32.60;;;;;;;-1.38;45.71;103093.03;5018780;27;99127;-74
2024/01/10 05:46:45;;;;;;;88.82;31.17;;;;;;;-1.66;47.27;103095.94;5022037;27;98942;-75
2024/01/10 05:49:12;;;;;;;87.40;30.42;;;;;;;-1.58;46.95;103089.44;5010622;27;97349;-75
2024/01/10 05:51:39;;;;;;;88.28;32.75;;;;;;;-1.69;47.99;103090.56;5019622;27;98909;-75
2024/01/10 05:54:07;;;;;;;84.35;30.33;;;;;;;-1.88;48.35;103093.91;5022340;27;97876;-76
2024/01/10 05:56:33;;;;;;;95.80;33.42;;;;;;;-1.79;47.86;103094.41;5022687;28;96721;-75
2024/01/10 05:58:59;;;;;;;87.63;30.27;;;;;;;-1.79;47.38;103090.91;5017571;27;96981;-75
2024/01/10 06:01:27;;;;;;;91.25;28.95;;;;;;;-1.98;47.69;103085.59;5021478;27;99004;-75
2024/01/10 06:03:53;;;;;;;79.00;29.90;;;;;;;-1.91;47.55;103087.69;5018206;27;98963;-74
2024/01/10 06:06:20;;;;;;;83.00;29.77;;;;;;;-1.66;46.74;103085.56;5025702;27;97261;-74
2024/01/10 06:08:47;;;;;;;86.45;30.05;;;;;;;-1.66;46.63;103089.03;5022026;27;96881;-74
2024/01/10 06:11:14;;;;;;;88.25;31.48;;;;;;;-1.78;46.48;103085.81;5019567;27;99442;-75
2024/01/10 06:13:40;;;;;;;84.65;29.55;;;;;;;-1.72;46.47;103075.75;5009557;27;98791;-75
2024/01/10 06:16:08;;;;;;;85.93;30.40;;;;;;;-1.78;48.03;103083.22;5016820;27;97212;-76
2024/01/10 06:18:35;;;;;;;93.82;32.58;;;;;;;-1.80;47.73;103078.75;5024539;27;97216;-76
2024/01/10 06:21:01;;;;;;;91.85;31.80;;;;;;;-1.77;47.25;103081.53;5016044;27;99291;-75
2024/01/10 06:23:27;;;;;;;85.10;30.90;;;;;;;-1.73;46.92;103079.16;5020821;27;97705;-75
2024/01/10 06:25:55;;;;;;;85.53;30.63;;;;;;;-1.61;46.77;103069.41;5020001;27;97025;-77
2024/01/10 06:28:23;;;;;;;89.85;29.65;;;;;;;-1.87;47.18;103066.28;5021905;27;96831;-76
2024/01/10 06:30:49;;;;;;;90.53;30.38;;;;;;;-1.54;45.48;103060.25;5016609;27;98838;-75
2024/01/10 06:33:16;;;;;;;83.82;28.83;;;;;;;-1.45;45.44;103065.91;5019799;27;101662;-74
2024/01/10 06:35:44;;;;;;;87.28;29.75;;;;;;;-1.62;45.55;103065.03;5022073;27;97153;-76
2024/01/10 06:38:13;;;;;;;93.07;32.20;;;;;;;-1.47;45.33;103071.81;5020165;27;96734;-75
2024/01/10 06:40:40;;;;;;;91.20;29.55;;;;;;;-1.53;44.99;103066.31;5025340;27;98169;-74
2024/01/10 06:43:09;;;;;;;85.78;30.17;;;;;;;-1.55;45.61;103067.94;5027153;27;99827;-76
2024/01/10 06:45:35;;;;;;;82.57;31.35;;;;;;;-1.77;46.73;103072.03;5023149;28;96731;-75
2024/01/10 06:48:02;;;;;;;89.85;30.58;;;;;;;-1.51;46.41;103065.56;5024122;27;97163;-74
2024/01/10 06:50:30;;;;;;;92.43;30.60;;;;;;;-1.62;45.95;103070.22;5026032;27;98778;-75
2024/01/10 06:52:56;;;;;;;83.32;30.27;;;;;;;-1.57;46.55;103074.75;5018372;27;98663;-75
2024/01/10 06:55:24;;;;;;;87.32;31.55;;;;;;;-1.43;46.28;103071.16;5024358;27;97372;-75
2024/01/10 06:57:52;;;;;;;92.82;30.80;;;;;;;-1.19;45.21;103071.50;5027789;27;97414;-75
2024/01/10 07:00:21;;;;;;;80.43;29.55;;;;;;;-1.06;45.36;103076.47;5021772;27;98975;-74
2024/01/10 07:02:48;;;;;;;84.03;30.20;;;;;;;-1.04;44.57;103074.81;5019812;27;99801;-74
2024/01/10 07:05:15;;;;;;;85.57;33.53;;;;;;;-1.19;45.35;103068.91;5023737;27;98514;-75
2024/01/10 07:07:42;;;;;;;88.75;31.45;;;;;;;-1.40;45.54;103073.91;5019679;27;96812;-75
2024/01/10 07:10:09;;;;;;;85.85;31.02;;;;;;;-1.37;45.99;103071.44;5023082;27;98017;-75
2024/01/10 07:12:35;;;;;;;93.15;31.60;;;;;;;-1.67;47.36;103063.03;5025737;27;100985;-76
2024/01/10 07:15:02;;;;;;;86.53;29.70;;;;;;;-1.70;47.69;103073.22;5021671;27;98883;-76
2024/01/10 07:17:31;;;;;;;90.97;32.70;;;;;;;-1.43;47.15;103068.56;5025190;27;96697;-75
2024/01/10 07:19:57;;;;;;;89.82;33.47;;;;;;;-1.58;47.08;103063.50;5023563;27;98881;-75
2024/01/10 07:22:24;;;;;;;89.18;31.80;;;;;;;-1.40;46.29;103063.53;5026478;27;99009;-75
2024/01/10 07:24:50;;;;;;;85.68;30.10;;;;;;;-1.45;46.28;103071.09;5024325;27;96836;-75
2024/01/10 07:27:18;;;;;;;89.45;32.35;;;;;;;-1.46;46.82;103066.72;5023606;27;97054;-75
2024/01/10 07:29:45;;;;;;;85.43;31.95;;;;;;;-1.31;47.38;103069.16;5012062;27;98901;-75
2024/01/10 07:32:13;;;;;;;93.70;33.67;;;;;;;-1.21;46.00;103056.72;5024059;27;99323;-75
2024/01/10 07:34:41;;;;;;;86.43;32.50;;;;;;;-1.34;46.04;103066.44;5014865;27;96921;-75
2024/01/10 07:37:09;;;;;;;96.07;31.27;;;;;;;-1.35;45.95;103067.25;5022920;27;97218;-75
2024/01/10 07:39:35;;;;;;;87.53;33.20;;;;;;;-1.22;46.17;103075.72;5017682;27;99414;-76
2024/01/10 07:42:02;;;;;;;88.90;32.22;;;;;;;-1.23;45.28;103071.31;5021524;27;99175;-75
2024/01/10 07:44:28;;;;;;;93.78;32.33;;;;;;;-1.28;45.38;103067.63;5018073;27;97124;-75
2024/01/10 07:46:55;;;;;;;95.65;32.33;;;;;;;-1.00;46.06;103068.97;5021401;27;97123;-76
2024/01/10 07:49:23;;;;;;;91.32;31.27;;;;;;;-0.92;45.50;103070.25;5019935;27;103574;-75
2024/01/10 07:51:51;;;;;;;92.25;32.03;;;;;;;-0.51;45.08;103078.25;5023958;27;99604;-75
2024/01/10 07:54:18;;;;;;;90.68;31.90;;;;;;;-0.17;43.81;103072.91;5018377;27;98460;-75
2024/01/10 07:56:44;;;;;;;96.90;33.45;;;;;;;0.04;43.37;103067.78;5019218;27;98238;-75
2024/01/10 07:59:14;;;;;;;89.53;32.33;;;;;;;0.34;42.79;103069.09;5018037;27;97804;-75
2024/01/10 08:01:41;;;;;;;90.63;32.97;;;;;;;0.09;42.13;103071.47;5018518;27;97500;-76
2024/01/10 08:04:07;;;;;;;94.38;34.45;;;;;;;-0.08;42.83;103069.84;5018544;27;97566;-75
2024/01/10 08:06:35;;;;;;;84.25;31.73;;;;;;;0.24;42.13;103077.34;5016145;27;104518;-76
2024/01/10 08:09:04;;;;;;;93.50;33.35;;;;;;;-0.08;42.97;103069.84;5017122;27;99328;-75
2024/01/10 08:11:31;;;;;;;92.45;33.30;;;;;;;-0.01;42.54;103069.28;5019647;27;99551;-75
2024/01/10 08:13:57;;;;;;;88.22;32.50;;;;;;;-0.24;42.79;103067.34;5020541;27;97108;-76
2024/01/10 08:16:24;;;;;;;85.55;31.73;;;;;;;-0.39;42.65;103064.09;5018569;27;99294;-76
2024/01/10 08:18:50;;;;;;;96.53;32.63;;;;;;;-0.05;42.09;103077.75;5024569;27;97806;-76
2024/01/10 08:21:17;;;;;;;93.05;31.65;;;;;;;-0.21;42.22;103075.31;5016875;27;101667;-76
2024/01/10 08:23:44;;;;;;;88.13;31.42;;;;;;;0.13;41.67;103075.97;5016882;27;97491;-75
2024/01/10 08:26:12;;;;;;;78.93;31.88;;;;;;;0.31;41.11;103075.91;5022585;27;96737;-76
2024/01/10 08:28:38;;;;;;;93.47;33.53;;;;;;;0.50;40.67;103077.56;5018921;27;99433;-77
2024/01/10 08:31:07;;;;;;;93.05;34.70;;;;;;;0.52;40.65;103074.22;5025191;27;99189;-76
2024/01/10 08:33:34;;;;;;;97.57;34.80;;;;;;;0.53;40.78;103081.16;5013899;27;97831;-76
2024/01/10 08:36:00;;;;;;;95.32;34.65;;;;;;;0.66;40.85;103077.38;5024452;27;96909;-76
2024/01/10 08:38:27;;;;;;;101.28;34.08;;;;;;;1.29;39.97;103071.31;5009208;27;99115;-74
2024/01/10 08:40:54;;;;;;;92.03;32.67;;;;;;;1.45;39.36;103075.38;5013143;27;98873;-75
2024/01/10 08:43:21;;;;;;;93.63;34.00;;;;;;;1.79;39.04;103080.16;5018966;27;97268;-76
2024/01/10 08:45:48;;;;;;;91.07;33.33;;;;;;;2.14;37.84;103076.25;5018282;27;97311;-77
2024/01/10 08:48:15;;;;;;;86.55;31.52;;;;;;;2.40;37.00;103073.72;5017104;27;99902;-76
2024/01/10 08:50:41;;;;;;;83.25;30.92;;;;;;;2.48;36.94;103086.16;5019488;27;99896;-75
2024/01/10 08:53:08;;;;;;;87.07;31.92;;;;;;;2.30;36.45;103079.44;5018693;27;97570;-75
2024/01/10 08:55:36;;;;;;;79.20;30.10;;;;;;;2.24;36.69;103074.00;5015214;27;97139;-77
2024/01/10 08:58:04;;;;;;;80.93;30.05;;;;;;;2.25;36.37;103077.50;5019785;27;99161;-76
2024/01/10 09:00:32;;;;;;;81.90;31.50;;;;;;;1.94;37.03;103084.22;5023008;27;98046;-80
2024/01/10 09:02:58;;;;;;;86.15;29.98;;;;;;;2.15;36.33;103080.63;5020777;27;97176;-77
2024/01/10 09:05:25;;;;;;;81.55;30.27;;;;;;;2.16;35.90;103074.59;5017394;27;96832;-75
2024/01/10 09:07:53;;;;;;;93.45;32.58;;;;;;;1.91;36.43;103076.28;5024178;27;99063;-75
2024/01/10 09:10:21;;;;;;;90.80;32.35;;;;;;;1.92;36.16;103079.78;5024211;27;99533;-75
2024/01/10 09:12:47;;;;;;;100.88;32.22;;;;;;;1.88;36.26;103078.78;5024639;27;97015;-76
2024/01/10 09:15:14;;;;;;;84.70;31.42;;;;;;;2.19;36.20;103079.88;5018772;27;97302;-76
2024/01/10 09:17:42;;;;;;;90.57;32.72;;;;;;;2.40;36.19;103076.31;5023887;27;101449;-77
2024/01/10 09:20:10;;;;;;;98.82;31.73;;;;;;;2.48;35.85;103074.00;5022070;27;97679;-76
2024/01/10 09:22:37;;;;;;;85.78;32.17;;;;;;;2.49;35.42;103075.78;5025306;27;96824;-79
2024/01/10 09:25:05;;;;;;;80.90;30.92;;;;;;;2.42;35.40;103068.56;5021610;27;98577;-73
2024/01/10 09:27:32;;;;;;;89.93;31.40;;;;;;;2.43;35.45;103066.84;5024803;27;99767;-72
2024/01/10 09:29:58;;;;;;;84.95;32.03;;;;;;;2.61;35.25;103070.97;5023145;27;98775;-72
2024/01/10 09:32:25;;;;;;;91.38;31.75;;;;;;;2.59;34.99;103067.41;5016343;27;97233;-72
2024/01/10 09:34:53;;;;;;;80.38;30.80;;;;;;;2.74;35.09;103073.16;5018413;27;97337;-72
2024/01/10 09:37:19;;;;;;;85.20;31.55;;;;;;;2.82;34.41;103070.78;5022504;27;98741;-73
2024/01/10 09:39:46;;;;;;;85.20;29.20;;;;;;;2.83;34.62;103069.94;5022477;27;98913;-71
2024/01/10 09:42:12;;;;;;;86.90;31.20;;;;;;;2.81;34.52;103063.78;5024446;27;97760;-71
2024/01/10 09:44:39;;;;;;;75.15;28.20;;;;;;;2.86;33.81;103056.09;5011232;27;99379;-71
2024/01/10 09:47:06;;;;;;;79.57;29.30;;;;;;;2.73;34.03;103060.03;5020096;27;98162;-72
2024/01/10 09:49:33;;;;;;;78.75;29.83;;;;;;;2.67;34.11;103055.50;5018899;27;99149;-71
2024/01/10 09:52:05;;;;;;;81.13;29.35;;;;;;;2.82;34.08;103056.84;5020803;27;97958;-71
2024/01/10 09:54:32;;;;;;;81.90;28.40;;;;;;;2.86;34.34;103059.59;5020542;27;97396;-71
2024/01/10 09:56:58;;;;;;;83.47;29.38;;;;;;;2.98;33.67;103061.72;5023274;27;97609;-72
2024/01/10 09:59:25;;;;;;;74.70;28.33;;;;;;;3.44;32.88;103058.81;5022887;27;98887;-72
2024/01/10 10:01:53;;;;;;;72.80;25.92;;;;;;;3.37;32.80;103057.75;5017897;27;98150;-72
2024/01/10 10:04:22;;;;;;;76.18;28.35;;;;;;;3.57;32.34;103051.41;5019562;27;99681;-72
2024/01/10 10:06:48;;;;;;;80.82;28.40;;;;;;;3.61;32.76;103058.47;5027973;27;101999;-72
2024/01/10 10:09:18;;;;;;;74.40;29.40;;;;;;;3.46;32.28;103058.03;5026014;27;100489;-72
2024/01/10 10:11:44;;;;;;;81.32;27.98;;;;;;;3.70;32.66;103059.59;5024752;27;96843;-72
2024/01/10 10:14:19;;;;;;;84.63;30.42;;;;;;;3.67;32.51;103057.78;5027072;27;98025;-72
2024/01/10 10:16:45;;;;;;;84.00;29.52;;;;;;;3.59;32.74;103056.69;5023964;27;99186;-73
2024/01/10 10:19:13;;;;;;;79.13;29.52;;;;;;;3.90;32.44;103045.38;5024551;27;98650;-73
2024/01/10 10:21:39;;;;;;;79.85;31.27;;;;;;;4.10;32.62;103051.16;5021667;27;96787;-73
2024/01/10 10:24:07;;;;;;;81.40;31.15;;;;;;;4.15;32.37;103046.91;5021211;27;98821;-73
2024/01/10 10:26:35;;;;;;;81.78;31.92;;;;;;;3.85;32.60;103046.97;5022851;27;99734;-70
2024/01/10 10:29:02;;;;;;;81.95;31.45;;;;;;;3.65;33.12;103041.16;5023204;27;99140;-73
2024/01/10 10:31:31;;;;;;;80.95;30.73;;;;;;;3.76;33.34;103037.13;5027096;27;97344;-72
2024/01/10 10:34:00;;;;;;;74.88;27.58;;;;;;;3.68;32.34;103035.13;5026384;27;97230;-73
2024/01/10 10:36:26;;;;;;;80.00;29.42;;;;;;;3.82;32.59;103025.94;5025523;27;98867;-71
2024/01/10 10:38:53;;;;;;;76.55;30.13;;;;;;;4.04;32.82;103025.72;5026058;27;98817;-70
2024/01/10 10:41:20;;;;;;;76.15;29.95;;;;;;;4.23;32.23;103027.97;5025737;27;97026;-71
2024/01/10 10:43:50;;;;;;;72.07;28.70;;;;;;;4.20;32.31;103024.41;5023075;27;98537;-71
2024/01/10 10:46:16;;;;;;;74.15;28.88;;;;;;;4.33;31.96;103026.50;5024971;27;100369;-72
2024/01/10 10:48:44;;;;;;;70.65;27.70;;;;;;;4.37;31.56;103017.88;5023053;27;99392;-71
2024/01/10 10:51:12;;;;;;;71.65;27.58;;;;;;;4.15;31.74;103016.41;5024266;27;97246;-71
2024/01/10 10:53:40;;;;;;;68.20;27.65;;;;;;;4.12;31.58;103018.97;5025084;27;97576;-72
2024/01/10 10:56:08;;;;;;;69.70;26.85;;;;;;;4.28;31.31;103025.47;5020278;27;102022;-72
2024/01/10 10:58:37;;;;;;;64.50;25.58;;;;;;;4.18;30.95;103016.50;5023884;27;101264;-72
2024/01/10 11:01:06;;;;;;;72.47;25.65;;;;;;;4.23;31.51;103022.75;5016369;27;101359;-72
2024/01/10 11:03:35;;;;;;;72.45;26.08;;;;;;;4.28;31.23;103026.38;5023141;27;97458;-71
2024/01/10 11:06:03;;;;;;;62.35;25.95;;;;;;;4.33;31.08;103035.22;5025024;27;100554;-72
2024/01/10 11:08:31;;;;;;;57.40;23.65;;;;;;;3.98;30.85;103030.78;5023915;27;101081;-72